Time;durP1;ratioP1;P1;durP2;ratioP2;P2;SDS_P1;SDS_P2;PMS_P1;PMS_P2;Temp;Humidity;BMP_temperature;BMP_pressure;BME280_temperature;BME280_humidity;BME280_pressure;Samples;Min_cycle;Max_cycle;Signal;HPM_P1;HPM_P2
2024/01/15 05:32:30;;;;;;;;;27.75;25.00;;;;;10.59;49.13;100433.53;5038709;27;46534;-71
2024/01/15 05:34:55;;;;;;;;;23.25;21.25;;;;;10.74;49.10;100427.38;5017030;28;52989;-71
2024/01/15 05:37:20;;;;;;;;;22.75;16.00;;;;;10.78;48.70;100425.44;5035253;28;45566;-73
2024/01/15 05:39:45;;;;;;;;;23.50;16.25;;;;;10.77;48.97;100419.19;5034066;28;50990;-72
2024/01/15 05:42:11;;;;;;;;;22.75;20.50;;;;;10.71;49.31;100418.66;5026666;28;62693;-73
2024/01/15 05:44:36;;;;;;;;;29.25;23.25;;;;;10.76;48.94;100428.19;5035058;28;45386;-73
2024/01/15 05:47:03;;;;;;;;;27.25;22.50;;;;;10.83;49.21;100426.03;5035053;28;45296;-73
2024/01/15 05:49:29;;;;;;;;;13.75;13.00;;;;;10.70;48.76;100428.50;5035182;28;45412;-73
2024/01/15 05:51:54;;;;;;;;;24.50;17.25;;;;;10.69;48.97;100407.13;5034913;28;45288;-70
2024/01/15 05:54:20;;;;;;;;;23.25;17.00;;;;;10.69;49.54;100408.00;5034997;28;45223;-71
2024/01/15 05:56:45;;;;;;;;;20.00;16.00;;;;;10.73;49.38;100414.91;5034924;28;45256;-72
2024/01/15 05:59:10;;;;;;;;;19.75;15.75;;;;;10.72;49.38;100399.78;5034787;28;46333;-72
2024/01/15 06:01:36;;;;;;;;;15.50;15.00;;;;;10.76;49.80;100403.19;5034448;28;45530;-72
2024/01/15 06:04:01;;;;;;;;;13.00;10.00;;;;;10.84;49.07;100393.78;5035071;28;45257;-71
2024/01/15 06:06:27;;;;;;;;;17.75;15.00;;;;;10.91;49.32;100407.72;5034693;28;46100;-73
2024/01/15 06:08:52;;;;;;;;;13.50;13.50;;;;;10.88;49.26;100394.50;5034715;28;48500;-70
2024/01/15 06:11:17;;;;;;;;;20.50;17.00;;;;;10.94;49.38;100411.13;5035686;28;46187;-73
2024/01/15 06:13:43;;;;;;;;;23.75;17.00;;;;;10.97;49.19;100402.91;5037502;28;45299;-72
2024/01/15 06:16:15;;;;;;;;;17.75;15.00;;;;;11.09;49.39;100412.13;5034594;28;49838;-72
2024/01/15 06:18:41;;;;;;;;;16.00;14.00;;;;;11.07;49.16;100405.97;5034417;28;47161;-72
2024/01/15 06:21:06;;;;;;;;;21.00;12.75;;;;;11.04;49.31;100405.28;5034877;28;48356;-72
2024/01/15 06:23:31;;;;;;;;;19.75;18.75;;;;;10.80;49.52;100402.94;5034836;28;45364;-73
2024/01/15 06:25:57;;;;;;;;;17.25;17.25;;;;;10.88;49.62;100413.28;5041486;28;45217;-72
2024/01/15 06:28:22;;;;;;;;;24.00;21.75;;;;;11.05;49.56;100412.38;5034553;28;45351;-72
2024/01/15 06:30:47;;;;;;;;;25.75;22.00;;;;;10.99;49.47;100418.94;5034338;28;45568;-72
2024/01/15 06:33:13;;;;;;;;;22.50;20.75;;;;;10.97;49.05;100407.44;5034326;28;45371;-73
2024/01/15 06:35:38;;;;;;;;;21.50;19.50;;;;;11.05;49.04;100415.94;5033910;28;56693;-73
2024/01/15 06:38:03;;;;;;;;;19.50;18.25;;;;;11.06;49.15;100423.00;5034253;28;45343;-72
2024/01/15 06:40:29;;;;;;;;;31.50;22.75;;;;;11.21;49.11;100421.34;5027347;28;45318;-72
2024/01/15 06:42:54;;;;;;;;;17.50;17.50;;;;;11.27;48.34;100415.66;5032037;28;50392;-70
2024/01/15 06:45:19;;;;;;;;;24.75;19.75;;;;;11.19;48.63;100421.44;5033890;28;53628;-71
2024/01/15 06:47:45;;;;;;;;;20.25;18.25;;;;;10.88;49.61;100414.16;5033445;28;57814;-74
2024/01/15 06:50:10;;;;;;;;;26.50;19.50;;;;;10.95;49.35;100404.81;5016039;28;46187;-73
2024/01/15 06:52:35;;;;;;;;;21.75;20.75;;;;;11.06;49.08;100408.75;5034495;28;45563;-75
2024/01/15 06:55:01;;;;;;;;;22.25;19.75;;;;;11.16;48.88;100418.03;5034406;28;45581;-71
2024/01/15 06:57:26;;;;;;;;;23.75;21.00;;;;;11.21;49.02;100421.34;5034188;28;46012;-73
2024/01/15 06:59:51;;;;;;;;;17.50;17.50;;;;;11.29;48.14;100416.44;5034505;28;45437;-72
2024/01/15 07:02:16;;;;;;;;;30.50;21.00;;;;;11.28;48.58;100430.81;5033949;28;45291;-75
2024/01/15 07:04:42;;;;;;;;;15.25;15.00;;;;;11.31;48.48;100430.66;5035230;28;45369;-71
2024/01/15 07:07:07;;;;;;;;;25.25;20.25;;;;;11.24;48.93;100426.53;5034000;28;45339;-77
2024/01/15 07:09:32;;;;;;;;;17.50;13.75;;;;;11.25;48.73;100425.59;5036661;28;46057;-74
2024/01/15 07:11:58;;;;;;;;;24.00;22.75;;;;;11.24;48.72;100414.00;5028779;28;48964;-75
2024/01/15 07:14:23;;;;;;;;;20.75;17.50;;;;;11.33;48.56;100409.94;5037660;28;45134;-73
2024/01/15 07:16:48;;;;;;;;;21.50;18.25;;;;;11.23;48.59;100412.25;5045116;28;45587;-75
2024/01/15 07:19:14;;;;;;;;;22.50;20.50;;;;;11.38;48.45;100415.94;5044872;28;51527;-76
2024/01/15 07:21:40;;;;;;;;;15.00;12.50;;;;;11.31;48.02;100420.75;5042725;28;45477;-75
2024/01/15 07:24:05;;;;;;;;;16.50;16.00;;;;;11.25;48.43;100418.41;5041929;28;45324;-75
2024/01/15 07:26:31;;;;;;;;;17.00;17.00;;;;;11.45;48.37;100422.72;5044317;28;46163;-71
2024/01/15 07:28:56;;;;;;;;;28.75;18.50;;;;;11.52;48.35;100434.84;5047288;28;45358;-73
2024/01/15 07:31:22;;;;;;;;;13.50;12.75;;;;;11.51;47.83;100427.72;5036975;28;45267;-73
2024/01/15 07:33:47;;;;;;;;;20.50;20.50;;;;;11.65;47.97;100445.78;5047396;28;45538;-72
2024/01/15 07:36:12;;;;;;;;;23.75;22.25;;;;;11.57;47.76;100437.28;5040548;28;45692;-71
2024/01/15 07:38:37;;;;;;;;;24.25;23.50;;;;;11.61;47.69;100439.69;5037263;28;45430;-73
2024/01/15 07:41:03;;;;;;;;;18.00;17.75;;;;;11.70;47.37;100457.13;5028829;28;45462;-75
2024/01/15 07:43:29;;;;;;;;;21.00;18.50;;;;;11.59;47.43;100448.78;5037062;28;45520;-74
2024/01/15 07:45:54;;;;;;;;;25.50;20.75;;;;;11.53;47.88;100460.75;5037141;28;45322;-74
2024/01/15 07:48:20;;;;;;;;;24.50;19.50;;;;;11.45;48.02;100457.59;5037773;28;45410;-74
2024/01/15 07:50:45;;;;;;;;;29.00;20.50;;;;;11.46;47.95;100463.84;5016972;28;45378;-78
2024/01/15 07:53:11;;;;;;;;;22.00;21.25;;;;;11.51;47.77;100467.13;5039736;28;45582;-78
2024/01/15 07:55:37;;;;;;;;;21.50;21.00;;;;;11.53;47.78;100475.97;5036272;28;45926;-77
2024/01/15 07:58:03;;;;;;;;;18.25;18.00;;;;;11.49;47.77;100463.66;5022804;28;45483;-77
2024/01/15 08:00:28;;;;;;;;;16.00;14.25;;;;;11.56;47.74;100475.81;5042694;28;45357;-77
2024/01/15 08:02:53;;;;;;;;;27.50;22.25;;;;;11.57;47.68;100480.25;5040527;28;48050;-77
2024/01/15 08:05:20;;;;;;;;;25.00;25.00;;;;;11.64;47.14;100470.91;5038111;28;52709;-76
2024/01/15 08:07:46;;;;;;;;;25.75;21.25;;;;;11.82;47.36;100491.41;5036608;28;45382;-76
2024/01/15 08:10:13;;;;;;;;;25.50;21.50;;;;;11.70;47.36;100482.16;5039141;28;45372;-75
2024/01/15 08:12:38;;;;;;;;;23.75;22.50;;;;;11.60;47.49;100466.63;5043256;28;45570;-75
2024/01/15 08:15:05;;;;;;;;;23.50;20.50;;;;;11.63;47.67;100480.78;5038505;28;47414;-75
2024/01/15 08:17:32;;;;;;;;;15.50;15.50;;;;;11.64;47.54;100492.38;5034567;28;45669;-74
2024/01/15 08:19:57;;;;;;;;;21.75;19.50;;;;;11.50;47.17;100460.88;5017453;28;45393;-78
2024/01/15 08:22:22;;;;;;;;;13.50;12.25;;;;;11.57;46.80;100462.28;5017771;28;46130;-79
2024/01/15 08:24:48;;;;;;;;;23.00;23.00;;;;;11.82;46.51;100488.72;5023930;28;46450;-79
2024/01/15 08:27:13;;;;;;;;;25.00;19.25;;;;;11.69;47.16;100484.94;5036363;28;45311;-78
2024/01/15 08:29:38;;;;;;;;;22.75;19.25;;;;;11.79;46.52;100478.13;5035890;28;45307;-78
2024/01/15 08:32:04;;;;;;;;;22.50;21.25;;;;;11.96;46.69;100488.81;5035625;28;52178;-80
2024/01/15 08:34:30;;;;;;;;;26.50;25.50;;;;;12.06;46.29;100494.56;5035839;28;45389;-79
2024/01/15 08:36:56;;;;;;;;;23.00;22.00;;;;;12.05;46.28;100499.06;5035527;28;45331;-79
2024/01/15 08:39:21;;;;;;;;;26.75;21.00;;;;;11.96;46.21;100487.94;5017952;28;45486;-80
2024/01/15 08:41:46;;;;;;;;;36.00;26.25;;;;;11.77;46.29;100492.59;5027673;28;45511;-78
2024/01/15 08:44:12;;;;;;;;;21.50;18.50;;;;;11.53;46.49;100479.53;5035441;28;47485;-77
2024/01/15 08:46:38;;;;;;;;;29.50;25.25;;;;;11.62;46.80;100503.19;5041581;28;45512;-78
2024/01/15 08:49:03;;;;;;;;;30.75;27.00;;;;;11.54;46.99;100497.38;5043013;28;45572;-80
2024/01/15 08:51:29;;;;;;;;;18.00;18.00;;;;;11.69;46.65;100493.84;5041285;28;45458;-78
2024/01/15 08:53:56;;;;;;;;;34.25;30.00;;;;;11.98;46.22;100534.41;5045709;28;46611;-79
2024/01/15 08:56:22;;;;;;;;;27.25;23.25;;;;;11.95;46.22;100529.19;5043174;28;45482;-77
2024/01/15 08:58:47;;;;;;;;;30.50;22.50;;;;;11.89;45.97;100518.78;5039636;28;45536;-80
2024/01/15 09:01:13;;;;;;;;;23.50;17.00;;;;;11.89;46.04;100508.91;5018070;28;47018;-79
2024/01/15 09:03:41;;;;;;;;;22.50;20.75;;;;;12.11;45.76;100536.31;5035111;28;46091;-78
2024/01/15 09:06:07;;;;;;;;;17.25;16.75;;;;;12.10;45.15;100528.34;5035456;28;45446;-78
2024/01/15 09:08:32;;;;;;;;;27.25;19.50;;;;;12.20;44.82;100555.56;5035658;28;45525;-78
2024/01/15 09:10:58;;;;;;;;;22.00;19.00;;;;;12.10;44.52;100531.91;5030628;28;59369;-78
2024/01/15 09:13:23;;;;;;;;;16.75;15.00;;;;;12.06;44.16;100538.41;5033358;28;46534;-78
2024/01/15 09:15:48;;;;;;;;;20.75;18.50;;;;;11.76;43.69;100507.84;5044535;28;45588;-77
2024/01/15 09:18:14;;;;;;;;;15.50;15.50;;;;;11.93;44.26;100550.78;5036297;28;45456;-79
2024/01/15 09:20:39;;;;;;;;;14.75;14.75;;;;;12.07;44.45;100558.09;5036679;28;45549;-80
2024/01/15 09:23:05;;;;;;;;;23.50;21.00;;;;;11.96;44.14;100549.75;5021585;28;46640;-78
2024/01/15 09:25:30;;;;;;;;;24.75;20.25;;;;;11.99;44.26;100549.59;5042175;28;45460;-80
2024/01/15 09:27:55;;;;;;;;;19.00;17.75;;;;;12.00;43.92;100532.47;5035982;28;45315;-78
2024/01/15 09:30:21;;;;;;;;;16.75;14.50;;;;;12.10;44.26;100561.47;5035918;28;45561;-78
2024/01/15 09:32:46;;;;;;;;;20.25;16.75;;;;;12.13;44.20;100565.81;5034444;28;46077;-79
2024/01/15 09:35:11;;;;;;;;;19.50;15.75;;;;;12.09;43.85;100548.09;5034972;28;45385;-79
2024/01/15 09:37:37;;;;;;;;;19.50;18.50;;;;;12.30;43.76;100560.38;5036316;28;45591;-81
2024/01/15 09:40:04;;;;;;;;;19.50;15.00;;;;;12.06;43.56;100524.09;5034096;28;45355;-77
2024/01/15 09:42:30;;;;;;;;;20.25;15.50;;;;;12.18;43.27;100526.09;5030469;28;47067;-77
2024/01/15 09:44:55;;;;;;;;;25.50;19.25;;;;;12.40;43.31;100560.72;5035157;28;45364;-78
2024/01/15 09:47:21;;;;;;;;;19.50;17.00;;;;;12.20;43.24;100537.63;5034515;28;45336;-78
2024/01/15 09:49:47;;;;;;;;;19.75;18.50;;;;;12.38;43.03;100573.38;5035279;28;45353;-78
2024/01/15 09:52:15;;;;;;;;;15.25;12.00;;;;;12.39;42.95;100569.75;5016576;28;47282;-78
2024/01/15 09:54:43;;;;;;;;;21.25;18.00;;;;;12.19;42.91;100532.34;5035252;28;45492;-77
2024/01/15 09:57:09;;;;;;;;;21.50;17.75;;;;;12.22;43.26;100522.28;5017408;28;45436;-77
2024/01/15 09:59:36;;;;;;;;;16.25;16.25;;;;;12.47;42.33;100560.28;5035152;28;45372;-77
2024/01/15 10:02:02;;;;;;;;;14.50;14.00;;;;;12.72;42.14;100585.78;5035113;28;46300;-77
2024/01/15 10:04:28;;;;;;;;;13.00;12.25;;;;;12.73;41.43;100574.06;5036365;28;45905;-76
2024/01/15 10:06:57;;;;;;;;;19.25;16.75;;;;;12.95;41.48;100587.13;5036027;28;45276;-80
2024/01/15 10:09:22;;;;;;;;;18.75;14.50;;;;;12.89;40.72;100589.22;5018448;28;46614;-77
2024/01/15 10:11:47;;;;;;;;;14.75;14.75;;;;;12.93;40.70;100575.63;5027418;28;46115;-79
2024/01/15 10:14:13;;;;;;;;;15.25;14.00;;;;;13.11;40.90;100590.66;5044368;28;45215;-77
2024/01/15 10:16:42;;;;;;;;;13.75;12.00;;;;;13.00;40.36;100587.75;5039266;28;45837;-78
2024/01/15 10:19:11;;;;;;;;;10.75;10.75;;;;;12.93;40.02;100600.66;5034426;28;45373;-77
2024/01/15 10:21:36;;;;;;;;;12.00;11.50;;;;;12.82;39.50;100578.91;5034122;28;46268;-78
2024/01/15 10:24:03;;;;;;;;;6.00;6.00;;;;;12.88;39.64;100586.63;5038020;28;45337;-79
2024/01/15 10:26:29;;;;;;;;;8.75;8.25;;;;;12.89;39.70;100589.22;5020720;28;45417;-74
2024/01/15 10:28:55;;;;;;;;;7.00;7.00;;;;;12.71;38.65;100570.59;5034735;28;45386;-79
2024/01/15 10:31:21;;;;;;;;;14.50;7.75;;;;;12.74;39.25;100543.53;5034366;28;45560;-78
2024/01/15 10:33:50;;;;;;;;;10.00;8.25;;;;;13.06;38.53;100595.47;5034731;28;45272;-78
2024/01/15 10:36:17;;;;;;;;;9.00;6.25;;;;;13.19;38.23;100589.28;5035697;28;45297;-78
2024/01/15 10:38:46;;;;;;;;;10.50;6.50;;;;;13.19;38.11;100589.28;5035571;28;45365;-75
2024/01/15 10:41:12;;;;;;;;;9.50;7.25;;;;;13.25;38.35;100588.94;5025528;28;46142;-77
2024/01/15 10:43:37;;;;;;;;;15.00;10.75;;;;;13.36;38.54;100592.78;5030802;28;45141;-78
2024/01/15 10:46:03;;;;;;;;;9.75;6.00;;;;;13.30;36.96;100594.03;5033014;28;45468;-77
2024/01/15 10:48:30;;;;;;;;;12.00;8.25;;;;;13.37;37.27;100600.78;5036326;28;45307;-74
2024/01/15 10:50:56;;;;;;;;;6.00;6.00;;;;;13.39;36.47;100604.25;5016220;28;46871;-76
2024/01/15 10:53:23;;;;;;;;;6.50;6.50;;;;;13.43;36.69;100595.06;5034338;28;45485;-76
2024/01/15 10:55:51;;;;;;;;;6.00;4.00;;;;;13.45;35.12;100603.88;5034746;28;45153;-77
2024/01/15 10:58:17;;;;;;;;;4.50;4.50;;;;;13.13;35.83;100584.28;5014601;28;46125;-77
2024/01/15 11:00:43;;;;;;;;;7.00;5.75;;;;;13.29;35.50;100600.38;5032070;28;45992;-78
2024/01/15 11:03:09;;;;;;;;;4.25;3.50;;;;;13.17;35.26;100588.53;5034718;28;45470;-75
2024/01/15 11:05:38;;;;;;;;;7.50;3.50;;;;;13.25;35.50;100586.25;5034253;28;45306;-76
2024/01/15 11:08:06;;;;;;;;;3.75;3.75;;;;;13.25;34.82;100591.63;5034946;28;45563;-78
2024/01/15 11:10:41;;;;;;;;;4.25;2.50;;;;;13.47;34.79;100587.63;5033106;28;45482;-76
2024/01/15 11:13:09;;;;;;;;;4.50;4.50;;;;;13.68;35.07;100596.25;5027735;28;45782;-71
2024/01/15 11:15:55;;;;;;;;;6.50;5.00;;;;;13.76;34.67;100593.97;5034582;28;45424;-77
2024/01/15 11:18:22;;;;;;;;;6.00;4.00;;;;;13.96;34.57;100589.06;5033961;28;45564;-74
2024/01/15 11:23:45;;;;;;;;;3.75;3.75;;;;;14.21;33.46;100599.16;5034269;28;45357;-78
2024/01/15 11:26:30;;;;;;;;;3.00;3.00;;;;;14.48;32.50;100596.56;5039849;28;45279;-77
2024/01/15 11:28:57;;;;;;;;;1.50;1.50;;;;;14.47;31.12;100592.16;5033955;28;45591;-76
2024/01/15 11:31:40;;;;;;;;;2.00;1.00;;;;;14.84;31.13;100596.03;5033709;28;45422;-77
2024/01/15 11:34:07;;;;;;;;;3.00;2.00;;;;;15.27;29.88;100583.22;5033587;28;45470;-76
2024/01/15 11:36:50;;;;;;;;;2.00;2.00;;;;;16.34;29.72;100603.63;5033754;28;45375;-75
2024/01/15 11:39:28;;;;;;;;;3.50;3.50;;;;;17.23;28.19;100601.56;5035209;28;45338;-76
2024/01/15 11:41:57;;;;;;;;;2.00;2.00;;;;;18.22;27.74;100604.66;5009561;28;46405;-76
2024/01/15 11:44:23;;;;;;;;;3.00;3.00;;;;;19.01;26.36;100592.78;5036319;28;45434;-77
2024/01/15 11:47:12;;;;;;;;;1.00;1.00;;;;;18.98;25.94;100595.72;5036300;28;45426;-73
2024/01/15 11:49:49;;;;;;;;;3.25;3.00;;;;;18.57;26.25;100588.28;5034966;28;45652;-78
2024/01/15 11:52:17;;;;;;;;;2.75;1.50;;;;;18.28;26.77;100587.03;5035122;28;46406;-77
2024/01/15 11:54:56;;;;;;;;;0.00;0.00;;;;;17.95;26.89;100580.59;5035847;28;45379;-74
2024/01/15 11:57:39;;;;;;;;;2.00;2.00;;;;;17.49;26.67;100585.16;5037234;28;45541;-76
2024/01/15 12:00:08;;;;;;;;;1.00;1.00;;;;;16.98;27.41;100582.72;5036947;28;45379;-78
2024/01/15 12:02:34;;;;;;;;;1.75;1.50;;;;;16.66;27.89;100579.69;5036335;28;45375;-77
2024/01/15 12:04:59;;;;;;;;;1.25;1.25;;;;;16.33;28.08;100592.94;5037161;28;45491;-76
2024/01/15 12:07:25;;;;;;;;;1.50;1.50;;;;;16.05;28.33;100594.06;5036799;28;45953;-78
2024/01/15 12:09:50;;;;;;;;;1.75;1.75;;;;;15.98;28.55;100585.50;5036886;28;53442;-76
2024/01/15 12:12:27;;;;;;;;;2.50;1.25;;;;;15.78;28.91;100576.09;5027990;28;46358;-77
2024/01/15 12:14:53;;;;;;;;;3.00;2.00;;;;;15.69;29.54;100574.03;5037058;28;45406;-76
2024/01/15 12:17:18;;;;;;;;;1.00;1.00;;;;;15.36;28.92;100592.53;5036957;28;45395;-77
2024/01/15 12:19:44;;;;;;;;;3.00;2.00;;;;;15.27;29.54;100601.25;5018705;28;46201;-77
2024/01/15 12:22:09;;;;;;;;;1.50;1.50;;;;;15.14;29.57;100582.34;5036013;28;45441;-77
2024/01/15 12:24:35;;;;;;;;;2.00;1.00;;;;;14.74;29.88;100597.59;5042758;28;56452;-77
2024/01/15 12:27:01;;;;;;;;;3.00;2.00;;;;;14.55;30.33;100591.66;5037817;28;45527;-77
2024/01/15 12:29:27;;;;;;;;;1.00;1.00;;;;;14.27;30.07;100601.50;5046273;28;45351;-76
2024/01/15 12:31:53;;;;;;;;;0.25;0.25;;;;;14.30;30.89;100595.88;5036056;28;46989;-77
2024/01/15 12:34:19;;;;;;;;;1.75;0.75;;;;;14.27;30.92;100595.25;5041663;28;45507;-75
2024/01/15 12:36:46;;;;;;;;;2.00;2.00;;;;;14.00;30.84;100566.34;5035648;28;45422;-77
2024/01/15 12:39:13;;;;;;;;;3.00;2.75;;;;;14.27;31.00;100595.25;5035720;28;45745;-76
2024/01/15 12:41:39;;;;;;;;;5.00;1.50;;;;;14.31;31.03;100589.53;5027687;28;45291;-76
2024/01/15 12:44:04;;;;;;;;;1.75;1.75;;;;;14.32;30.35;100588.56;5035085;28;45643;-75
2024/01/15 12:46:30;;;;;;;;;3.75;3.00;;;;;14.45;30.51;100594.09;5036168;28;45462;-75
2024/01/15 12:48:58;;;;;;;;;1.00;1.00;;;;;14.45;30.77;100586.00;5036800;28;45497;-75
2024/01/15 12:51:27;;;;;;;;;1.00;1.00;;;;;14.56;30.46;100594.25;5036455;28;46482;-75
2024/01/15 12:53:53;;;;;;;;;0.75;0.75;;;;;14.58;30.55;100597.72;5036136;28;45398;-75
2024/01/15 12:56:18;;;;;;;;;2.25;1.00;;;;;14.58;30.34;100584.22;5036301;28;45701;-72
2024/01/15 12:58:43;;;;;;;;;2.00;2.00;;;;;14.63;30.70;100586.66;5036423;28;45606;-73
2024/01/15 13:01:09;;;;;;;;;1.00;1.00;;;;;14.62;30.12;100580.38;5036304;28;55554;-76
2024/01/15 13:03:34;;;;;;;;;3.00;1.00;;;;;14.67;30.49;100583.63;5036061;28;45283;-77
2024/01/15 13:06:00;;;;;;;;;1.00;1.00;;;;;14.71;30.22;100573.53;5035042;28;53464;-77
2024/01/15 13:08:26;;;;;;;;;0.25;0.25;;;;;14.61;30.18;100565.16;5035688;28;45228;-76
2024/01/15 13:10:55;;;;;;;;;2.00;2.00;;;;;14.79;30.19;100587.38;5031991;28;45286;-78
2024/01/15 13:13:21;;;;;;;;;2.00;1.25;;;;;14.91;30.28;100585.69;5040399;28;45436;-77
2024/01/15 13:15:46;;;;;;;;;0.00;0.00;;;;;14.84;29.75;100584.34;5036150;28;45387;-76
2024/01/15 13:18:12;;;;;;;;;1.00;1.00;;;;;14.84;29.82;100578.97;5035245;28;56879;-79
2024/01/15 13:20:37;;;;;;;;;0.00;0.00;;;;;14.70;29.55;100588.84;5036066;28;45316;-79
2024/01/15 13:23:03;;;;;;;;;1.00;1.00;;;;;14.51;29.31;100557.75;5037653;28;45394;-79
2024/01/15 13:25:29;;;;;;;;;1.00;1.00;;;;;14.58;28.96;100584.22;5026467;28;45360;-79
2024/01/15 13:27:54;;;;;;;;;1.00;0.00;;;;;14.57;28.77;100581.63;5037116;28;45261;-77
2024/01/15 13:30:20;;;;;;;;;0.75;0.75;;;;;14.64;29.07;100581.13;5036186;28;46033;-78
2024/01/15 13:32:46;;;;;;;;;1.50;1.00;;;;;14.74;29.14;100584.97;5035213;28;45571;-79
2024/01/15 13:35:13;;;;;;;;;1.00;1.00;;;;;14.82;29.45;100572.78;5035570;28;45533;-77
2024/01/15 13:37:41;;;;;;;;;1.00;1.00;;;;;14.80;28.99;100553.16;5035301;28;45285;-79
2024/01/15 13:40:08;;;;;;;;;5.75;2.25;;;;;14.99;28.94;100568.00;5030410;28;45999;-80
2024/01/15 13:42:34;;;;;;;;;2.50;0.75;;;;;15.17;28.71;100565.03;5030335;28;45540;-80
2024/01/15 13:44:59;;;;;;;;;1.00;1.00;;;;;15.24;28.78;100556.41;5017612;28;45257;-79
2024/01/15 13:47:24;;;;;;;;;2.00;2.00;;;;;15.35;28.40;100559.25;5035093;28;45215;-79
2024/01/15 13:49:50;;;;;;;;;3.00;2.00;;;;;15.51;28.56;100576.13;5017743;28;48006;-79
2024/01/15 13:52:15;;;;;;;;;2.00;2.00;;;;;15.63;28.63;100571.75;5034303;28;55795;-78
2024/01/15 13:54:40;;;;;;;;;1.00;1.00;;;;;15.74;28.29;100584.50;5038314;28;49442;-79
2024/01/15 13:57:06;;;;;;;;;1.00;1.00;;;;;15.65;28.11;100563.56;5037323;28;45450;-77
2024/01/15 13:59:32;;;;;;;;;0.50;0.50;;;;;15.73;28.10;100563.88;5017140;28;47970;-78
2024/01/15 14:01:57;;;;;;;;;0.50;0.50;;;;;15.74;28.18;100562.88;5035454;28;45827;-77
2024/01/15 14:04:23;;;;;;;;;1.25;1.00;;;;;15.80;27.79;100570.59;5035220;28;45342;-78
2024/01/15 14:06:48;;;;;;;;;3.75;0.00;;;;;15.79;27.93;100572.41;5034544;28;45770;-78
2024/01/15 14:09:14;;;;;;;;;0.50;0.50;;;;;15.79;27.61;100568.84;5035620;28;45490;-75
2024/01/15 14:11:39;;;;;;;;;0.00;0.00;;;;;15.71;28.19;100553.19;5025038;28;45811;-78
2024/01/15 14:14:05;;;;;;;;;1.00;1.00;;;;;15.63;27.98;100542.03;5035180;28;45442;-79
2024/01/15 14:16:30;;;;;;;;;1.25;0.25;;;;;15.70;28.07;100556.84;5034923;28;45481;-77
2024/01/15 14:18:56;;;;;;;;;2.00;0.00;;;;;15.76;28.07;100563.66;5035158;28;45330;-78
2024/01/15 14:21:21;;;;;;;;;2.00;2.00;;;;;15.62;28.12;100566.47;5035217;28;45600;-80
2024/01/15 14:23:47;;;;;;;;;3.50;1.00;;;;;15.81;28.27;100580.44;5036087;28;45360;-76
2024/01/15 14:26:12;;;;;;;;;1.00;1.00;;;;;16.07;27.82;100581.28;5022225;28;46194;-79
2024/01/15 14:28:38;;;;;;;;;0.50;0.50;;;;;16.50;26.71;100592.59;5034838;28;45431;-77
2024/01/15 14:31:05;;;;;;;;;1.00;1.00;;;;;16.85;25.85;100603.53;5032966;28;45509;-80
2024/01/15 14:33:31;;;;;;;;;1.00;1.00;;;;;17.13;25.31;100580.69;5034527;28;45374;-79
2024/01/15 14:35:56;;;;;;;;;0.00;0.00;;;;;17.54;24.36;100608.19;5035321;28;45373;-78
2024/01/15 14:38:23;;;;;;;;;0.00;0.00;;;;;17.85;24.02;100616.72;5034351;28;46262;-78
2024/01/15 14:40:49;;;;;;;;;0.25;0.25;;;;;17.88;23.94;100600.19;5025600;28;45396;-77
2024/01/15 14:43:14;;;;;;;;;0.00;0.00;;;;;17.97;23.54;100594.91;5034583;28;45544;-78
2024/01/15 14:45:40;;;;;;;;;0.50;0.50;;;;;18.48;23.74;100621.56;5031429;28;45272;-78
2024/01/15 14:48:05;;;;;;;;;0.00;0.00;;;;;18.94;23.64;100626.88;5021396;28;46043;-79
2024/01/15 14:50:31;;;;;;;;;0.00;0.00;;;;;19.12;22.64;100627.22;5034117;28;45411;-78
2024/01/15 14:52:56;;;;;;;;;2.00;0.00;;;;;19.23;23.04;100628.00;5033972;28;54596;-80
2024/01/15 14:55:23;;;;;;;;;0.00;0.00;;;;;19.23;22.72;100628.00;5034069;28;45455;-79
2024/01/15 14:57:49;;;;;;;;;0.00;0.00;;;;;19.51;22.76;100620.28;5033988;28;45516;-78
2024/01/15 15:00:16;;;;;;;;;0.00;0.00;;;;;19.45;22.25;100629.81;5034097;28;45384;-79
2024/01/15 15:02:42;;;;;;;;;0.75;0.75;;;;;19.58;22.37;100606.03;5033605;28;46232;-78
2024/01/15 15:05:10;;;;;;;;;0.00;0.00;;;;;19.77;22.35;100618.94;5015808;28;45573;-79
2024/01/15 15:07:36;;;;;;;;;0.00;0.00;;;;;20.01;21.92;100627.69;5015691;28;46956;-80
2024/01/15 15:10:04;;;;;;;;;0.25;0.00;;;;;20.37;21.80;100626.34;5033887;28;45367;-78
2024/01/15 15:12:30;;;;;;;;;2.75;1.75;;;;;20.74;21.36;100625.78;5024862;28;45225;-78
2024/01/15 15:14:55;;;;;;;;;0.00;0.00;;;;;21.15;20.97;100625.59;5034236;28;45504;-80
2024/01/15 15:17:21;;;;;;;;;0.00;0.00;;;;;21.25;20.76;100612.03;5034008;28;45227;-79
2024/01/15 15:19:46;;;;;;;;;2.00;0.50;;;;;21.22;21.25;100634.09;5034462;28;45258;-78
2024/01/15 15:22:11;;;;;;;;;0.50;0.50;;;;;20.77;21.48;100614.59;5035006;28;45389;-77
2024/01/15 15:24:38;;;;;;;;;0.25;0.25;;;;;20.46;21.24;100634.69;5048578;28;45265;-81
2024/01/15 15:27:05;;;;;;;;;1.25;1.00;;;;;20.09;22.17;100642.47;5035546;28;45510;-78
2024/01/15 15:29:31;;;;;;;;;0.00;0.00;;;;;19.64;22.25;100640.88;5017921;28;45457;-77
2024/01/15 15:31:56;;;;;;;;;0.00;0.00;;;;;19.10;22.83;100621.91;5038457;28;45411;-79
2024/01/15 15:34:22;;;;;;;;;0.00;0.00;;;;;18.83;22.99;100645.91;5038310;28;45508;-77
2024/01/15 15:36:47;;;;;;;;;0.00;0.00;;;;;18.46;23.56;100654.25;5037826;28;45334;-80
2024/01/15 15:39:15;;;;;;;;;0.00;0.00;;;;;18.00;23.55;100638.06;5037035;28;45435;-77
2024/01/15 15:41:41;;;;;;;;;0.00;0.00;;;;;17.46;24.16;100632.31;5010434;28;45401;-78
2024/01/15 15:44:06;;;;;;;;;0.00;0.00;;;;;17.31;24.71;100663.28;5037013;28;45504;-79
2024/01/15 15:46:32;;;;;;;;;0.50;0.50;;;;;17.03;24.73;100667.19;5036677;28;46279;-77
2024/01/15 15:48:57;;;;;;;;;0.00;0.00;;;;;16.62;24.94;100676.50;5037056;28;45245;-79
2024/01/15 15:51:23;;;;;;;;;0.00;0.00;;;;;16.44;25.34;100671.50;5019094;28;45408;-78
2024/01/15 15:53:48;;;;;;;;;1.00;1.00;;;;;16.25;25.97;100674.63;5036896;28;45499;-78
2024/01/15 15:56:13;;;;;;;;;0.00;0.00;;;;;16.15;26.20;100685.25;5036901;28;45532;-80
2024/01/15 15:58:39;;;;;;;;;1.00;1.00;;;;;15.98;26.21;100665.75;5036766;28;45351;-77
2024/01/15 16:01:05;;;;;;;;;1.00;0.75;;;;;15.86;26.76;100687.25;5037202;28;45572;-79
2024/01/15 16:03:31;;;;;;;;;0.25;0.25;;;;;15.69;26.71;100686.69;5018753;28;45529;-77
2024/01/15 16:05:56;;;;;;;;;2.00;0.00;;;;;15.57;27.08;100695.63;5036463;28;45300;-79
2024/01/15 16:08:21;;;;;;;;;0.00;0.00;;;;;15.48;26.99;100695.22;5036657;28;45447;-78
2024/01/15 16:10:51;;;;;;;;;0.00;0.00;;;;;15.40;27.22;100702.09;5034280;28;45454;-79
2024/01/15 16:13:17;;;;;;;;;0.75;0.75;;;;;15.33;27.49;100698.06;5030295;28;45484;-78
2024/01/15 16:15:42;;;;;;;;;0.50;0.50;;;;;15.25;27.67;100692.31;5036589;28;46180;-79
2024/01/15 16:18:07;;;;;;;;;0.00;0.00;;;;;15.12;27.63;100686.88;5036459;28;54469;-80
2024/01/15 16:20:33;;;;;;;;;1.00;1.00;;;;;15.12;27.92;100701.25;5036892;28;45279;-77
2024/01/15 16:22:58;;;;;;;;;1.00;1.00;;;;;15.04;28.11;100698.19;5036526;28;45631;-80
2024/01/15 16:25:23;;;;;;;;;2.50;1.00;;;;;14.98;27.92;100706.66;5043428;28;47655;-79
2024/01/15 16:27:49;;;;;;;;;0.25;0.25;;;;;14.89;28.21;100706.38;5036459;28;45334;-78
2024/01/15 16:30:14;;;;;;;;;1.25;0.75;;;;;14.85;28.06;100710.25;5036712;28;45431;-82
2024/01/15 16:32:39;;;;;;;;;0.25;0.00;;;;;14.80;27.99;100713.22;5035948;28;45563;-79
2024/01/15 16:35:05;;;;;;;;;1.75;0.75;;;;;14.69;28.12;100699.56;5036494;28;46209;-79
2024/01/15 16:37:31;;;;;;;;;0.00;0.00;;;;;14.65;28.28;100716.91;5036589;28;45391;-78
2024/01/15 16:39:56;;;;;;;;;1.00;1.00;;;;;14.64;27.96;100721.44;5034152;28;45350;-79
2024/01/15 16:42:22;;;;;;;;;2.50;1.00;;;;;14.59;28.26;100722.69;5029040;28;45498;-78
2024/01/15 16:44:47;;;;;;;;;1.00;1.00;;;;;14.54;28.38;100724.84;5036458;28;45962;-76
2024/01/15 16:47:12;;;;;;;;;0.50;0.50;;;;;14.46;28.37;100737.94;5036452;28;45469;-79